Time;durP1;ratioP1;P1;durP2;ratioP2;P2;SDS_P1;SDS_P2;PMS_P1;PMS_P2;Temp;Humidity;BMP_temperature;BMP_pressure;BME280_temperature;BME280_humidity;BME280_pressure;Samples;Min_cycle;Max_cycle;Signal;HPM_P1;HPM_P2
2022/08/10 00:01:40;;;;;;;1.43;1.33;;;17.10;99.90;;;;;;5014437;28;20308;-57
2022/08/10 00:04:08;;;;;;;1.93;1.30;;;17.00;99.90;;;;;;5022342;28;20222;-56
2022/08/10 00:06:48;;;;;;;1.27;1.17;;;17.00;99.90;;;;;;5015025;28;20601;-57
2022/08/10 00:09:17;;;;;;;1.37;1.10;;;17.00;99.90;;;;;;5019901;28;20225;-57
2022/08/10 00:11:45;;;;;;;2.70;1.37;;;16.90;99.90;;;;;;5018657;28;20234;-57
2022/08/10 00:14:13;;;;;;;1.87;1.20;;;16.90;99.90;;;;;;5023490;28;20226;-57
2022/08/10 00:16:41;;;;;;;1.20;1.10;;;16.90;99.90;;;;;;5014423;28;20308;-57
2022/08/10 00:19:11;;;;;;;1.23;1.17;;;16.80;99.90;;;;;;5032209;28;20241;-57
2022/08/10 00:21:44;;;;;;;1.33;1.20;;;16.80;99.90;;;;;;5026062;28;20228;-57
2022/08/10 00:24:12;;;;;;;1.00;1.00;;;16.80;99.90;;;;;;5022307;28;20749;-57
2022/08/10 00:26:41;;;;;;;1.40;1.30;;;16.80;99.90;;;;;;5014393;28;20316;-57
2022/08/10 00:29:30;;;;;;;2.77;1.50;;;16.80;99.90;;;;;;5019383;28;20722;-57
2022/08/10 00:31:58;;;;;;;1.53;1.43;;;16.80;99.90;;;;;;5014176;28;20245;-56
2022/08/10 00:34:27;;;;;;;1.30;1.20;;;16.70;99.90;;;;;;5026787;28;20697;-56
2022/08/10 00:36:55;;;;;;;2.60;1.23;;;16.70;99.90;;;;;;5014706;28;20629;-57
2022/08/10 00:39:23;;;;;;;1.40;1.30;;;16.70;99.90;;;;;;5019854;28;20225;-57
2022/08/10 00:41:54;;;;;;;1.13;1.13;;;16.60;99.90;;;;;;5029189;28;20239;-57
2022/08/10 00:44:34;;;;;;;2.83;1.50;;;16.60;99.90;;;;;;5017848;28;20220;-57
2022/08/10 00:47:02;;;;;;;1.77;1.47;;;16.60;99.90;;;;;;5014898;28;20331;-56
2022/08/10 00:49:31;;;;;;;1.37;1.17;;;16.50;99.90;;;;;;5027238;28;20308;-57
2022/08/10 00:51:59;;;;;;;1.87;1.40;;;16.50;99.90;;;;;;5025720;28;20646;-57
2022/08/10 00:54:28;;;;;;;1.80;1.30;;;16.40;99.90;;;;;;5019261;28;20408;-57
2022/08/10 00:56:58;;;;;;;1.30;1.20;;;16.40;99.90;;;;;;5028472;28;20649;-56
2022/08/10 00:59:46;;;;;;;1.63;1.30;;;16.40;99.90;;;;;;5024425;28;20230;-57
2022/08/10 01:02:27;;;;;;;1.33;1.23;;;16.40;99.90;;;;;;5013326;28;20242;-55
2022/08/10 01:04:56;;;;;;;1.40;1.30;;;16.30;99.90;;;;;;5015776;28;20562;-57
2022/08/10 01:07:53;;;;;;;2.03;1.10;;;16.20;99.90;;;;;;5017194;28;20236;-56
2022/08/10 01:10:36;;;;;;;1.20;1.10;;;16.10;99.90;;;;;;5013702;28;20221;-57
2022/08/10 01:13:13;;;;;;;1.33;1.13;;;16.00;99.90;;;;;;5027693;28;20221;-57
2022/08/10 01:15:52;;;;;;;1.13;1.03;;;16.00;99.90;;;;;;5017538;28;20229;-57
2022/08/10 01:18:29;;;;;;;1.77;1.07;;;16.00;99.90;;;;;;5024701;28;20235;-57
2022/08/10 01:21:25;;;;;;;1.00;0.90;;;15.90;99.90;;;;;;5016234;28;20224;-56
2022/08/10 01:24:08;;;;;;;1.60;1.20;;;15.90;99.90;;;;;;5025334;28;20292;-57
2022/08/10 01:27:07;;;;;;;1.13;1.03;;;16.00;99.90;;;;;;5017734;28;20229;-57
2022/08/10 01:29:49;;;;;;;1.67;1.50;;;15.90;99.90;;;;;;5027797;28;20255;-57
2022/08/10 01:32:24;;;;;;;1.40;1.30;;;15.90;99.90;;;;;;5013107;28;20320;-57
2022/08/10 01:34:58;;;;;;;2.03;1.50;;;15.90;99.90;;;;;;5028157;28;20307;-57
2022/08/10 01:37:32;;;;;;;2.20;1.30;;;15.90;99.90;;;;;;5017181;28;20256;-55
2022/08/10 01:40:03;;;;;;;1.40;1.30;;;15.80;99.90;;;;;;5022873;28;20233;-57
2022/08/10 01:42:36;;;;;;;1.60;1.50;;;15.80;99.90;;;;;;5017115;28;20244;-56
2022/08/10 01:45:09;;;;;;;1.60;1.50;;;15.80;99.90;;;;;;5023598;28;20221;-57
2022/08/10 01:50:31;;;;;;;1.70;1.40;;;15.80;99.90;;;;;;5023280;28;20253;-56
2022/08/10 01:53:04;;;;;;;1.50;1.40;;;15.70;99.90;;;;;;5031558;28;20263;-56
2022/08/10 01:55:34;;;;;;;1.97;1.40;;;15.70;99.90;;;;;;5014897;28;20307;-56
2022/08/10 01:58:06;;;;;;;2.07;1.80;;;15.70;99.90;;;;;;5021701;28;20231;-57
2022/08/10 02:00:38;;;;;;;2.07;1.40;;;15.70;99.90;;;;;;5017186;28;20315;-57
2022/08/10 02:03:08;;;;;;;2.03;1.30;;;15.70;99.90;;;;;;5013598;28;20324;-57
2022/08/10 02:05:39;;;;;;;1.40;1.30;;;15.60;99.90;;;;;;5025119;28;20257;-57
2022/08/10 02:08:10;;;;;;;1.33;1.23;;;15.60;99.90;;;;;;5018739;28;20245;-57
2022/08/10 02:10:40;;;;;;;1.77;1.30;;;15.60;99.90;;;;;;5266034;22;20322;-63
2022/08/10 02:13:09;;;;;;;1.50;1.40;;;15.60;99.90;;;;;;5052148;28;20242;-63
2022/08/10 02:15:41;;;;;;;1.80;1.60;;;15.50;99.90;;;;;;5056261;28;20238;-64
2022/08/10 02:18:30;;;;;;;1.70;1.50;;;15.50;99.90;;;;;;5049172;28;20586;-63
2022/08/10 02:21:03;;;;;;;1.43;1.33;;;15.50;99.90;;;;;;5056238;28;20228;-64
2022/08/10 02:23:34;;;;;;;1.83;1.40;;;15.40;99.90;;;;;;5055984;28;20227;-63
2022/08/10 02:26:04;;;;;;;1.30;1.20;;;15.40;99.90;;;;;;5056009;28;20310;-63
2022/08/10 02:28:35;;;;;;;1.20;1.10;;;15.40;99.90;;;;;;5054988;28;20310;-63
2022/08/10 02:31:10;;;;;;;1.30;1.20;;;15.30;99.90;;;;;;5049528;28;20239;-63
2022/08/10 02:33:42;;;;;;;1.20;1.10;;;15.30;99.90;;;;;;5055800;28;20223;-64
2022/08/10 02:36:27;;;;;;;2.00;1.47;;;15.30;99.90;;;;;;5050084;28;20615;-64
2022/08/10 02:38:59;;;;;;;2.80;1.40;;;15.20;99.90;;;;;;5055065;28;20224;-63
2022/08/10 02:41:34;;;;;;;1.30;1.20;;;15.20;99.90;;;;;;5055634;28;20319;-63
2022/08/10 02:44:27;;;;;;;1.60;1.40;;;15.20;99.90;;;;;;5049588;28;20216;-64
2022/08/10 02:47:25;;;;;;;1.53;1.30;;;15.20;99.90;;;;;;5047527;28;20227;-63
2022/08/10 02:50:01;;;;;;;1.83;1.50;;;15.20;99.90;;;;;;5055630;28;20230;-63
2022/08/10 02:52:35;;;;;;;1.67;1.30;;;15.20;99.90;;;;;;5055977;28;20242;-64
2022/08/10 02:55:07;;;;;;;1.70;1.60;;;15.20;99.90;;;;;;5055336;28;20237;-63
2022/08/10 02:57:51;;;;;;;5.27;1.80;;;15.20;99.90;;;;;;5054495;28;20679;-63
2022/08/10 03:00:44;;;;;;;1.50;1.40;;;15.20;99.90;;;;;;5055138;28;20231;-63
2022/08/10 03:03:19;;;;;;;1.70;1.60;;;15.20;99.90;;;;;;5055852;28;20228;-64
2022/08/10 03:05:50;;;;;;;1.77;1.67;;;15.10;99.90;;;;;;5055066;28;20302;-64
2022/08/10 03:08:21;;;;;;;2.40;1.73;;;15.10;99.90;;;;;;5054391;28;20232;-64
2022/08/10 03:10:50;;;;;;;2.70;1.77;;;15.10;99.90;;;;;;5050294;28;20567;-64
2022/08/10 03:13:20;;;;;;;2.60;1.90;;;15.10;99.90;;;;;;5035639;28;20228;-64
2022/08/10 03:15:50;;;;;;;2.30;2.10;;;15.10;99.90;;;;;;5034835;28;20267;-64
2022/08/10 03:18:23;;;;;;;2.00;1.80;;;15.00;99.90;;;;;;5034465;28;20241;-64
2022/08/10 03:20:53;;;;;;;1.70;1.60;;;15.00;99.90;;;;;;5035345;28;20303;-63
2022/08/10 03:23:24;;;;;;;3.30;1.70;;;15.00;99.90;;;;;;5034689;28;20229;-64
2022/08/10 03:25:55;;;;;;;2.77;1.90;;;15.00;99.90;;;;;;5035051;28;20251;-64
2022/08/10 03:28:27;;;;;;;2.10;1.90;;;15.00;99.90;;;;;;5035306;28;20228;-63
2022/08/10 03:30:58;;;;;;;2.40;2.20;;;15.00;99.90;;;;;;5034989;28;20256;-64
2022/08/10 03:33:30;;;;;;;2.50;2.30;;;14.90;99.90;;;;;;5035292;28;20229;-62
2022/08/10 03:35:58;;;;;;;2.30;2.10;;;14.90;99.90;;;;;;5034968;28;20250;-64
2022/08/10 03:38:50;;;;;;;2.23;1.80;;;14.90;99.90;;;;;;5033825;28;20228;-64
2022/08/10 03:41:23;;;;;;;2.30;2.10;;;14.90;99.90;;;;;;5035074;28;20224;-64
2022/08/10 03:43:53;;;;;;;1.70;1.60;;;14.80;99.90;;;;;;5034740;28;20216;-64
2022/08/10 03:46:24;;;;;;;2.70;1.70;;;14.90;99.90;;;;;;5038456;28;20239;-64
2022/08/10 03:48:57;;;;;;;1.90;1.63;;;14.80;99.90;;;;;;5036281;28;20225;-62
2022/08/10 03:51:28;;;;;;;1.60;1.50;;;14.80;99.90;;;;;;5034626;28;20224;-63
2022/08/10 03:53:57;;;;;;;2.00;1.90;;;14.80;99.90;;;;;;5033405;28;20229;-64
2022/08/10 03:56:34;;;;;;;2.20;2.00;;;14.80;99.90;;;;;;5034254;28;20683;-64
2022/08/10 03:59:03;;;;;;;2.17;1.97;;;14.80;99.90;;;;;;5038671;28;20675;-63
2022/08/10 04:01:32;;;;;;;3.17;2.00;;;14.80;99.90;;;;;;5034110;28;20703;-64
2022/08/10 04:04:22;;;;;;;1.40;1.30;;;14.70;99.90;;;;;;5034269;28;20244;-64
2022/08/10 04:06:53;;;;;;;1.73;1.60;;;14.70;99.90;;;;;;5033310;28;20315;-63
2022/08/10 04:09:23;;;;;;;1.57;1.47;;;14.70;99.90;;;;;;5033419;28;20236;-63
2022/08/10 04:11:51;;;;;;;2.13;1.53;;;14.70;99.90;;;;;;5034918;28;20236;-63
2022/08/10 04:14:19;;;;;;;1.63;1.53;;;14.80;99.90;;;;;;5041765;28;20286;-64
2022/08/10 04:17:07;;;;;;;1.57;1.40;;;14.80;99.90;;;;;;5040587;28;20221;-63
2022/08/10 04:19:46;;;;;;;1.50;1.40;;;14.70;99.90;;;;;;5039293;28;20290;-63
2022/08/10 04:22:17;;;;;;;2.03;1.80;;;14.70;99.90;;;;;;5043680;28;20224;-64
2022/08/10 04:24:48;;;;;;;2.10;1.90;;;14.80;99.90;;;;;;5042444;28;20274;-63
2022/08/10 04:27:17;;;;;;;2.10;1.90;;;14.80;99.90;;;;;;5033832;28;20306;-63
2022/08/10 04:29:46;;;;;;;1.87;1.60;;;14.90;99.90;;;;;;5041057;28;20224;-63
2022/08/10 04:32:17;;;;;;;3.17;1.70;;;14.90;99.90;;;;;;5041612;28;20315;-64
2022/08/10 04:34:47;;;;;;;2.17;1.67;;;14.90;99.90;;;;;;5044458;28;20322;-63
2022/08/10 04:37:18;;;;;;;1.60;1.43;;;15.10;99.90;;;;;;5037793;28;20243;-63
2022/08/10 04:39:46;;;;;;;1.97;1.77;;;15.20;99.90;;;;;;5041921;28;20223;-63
2022/08/10 04:42:14;;;;;;;1.73;1.63;;;15.20;99.90;;;;;;5036346;28;20216;-63
2022/08/10 04:44:43;;;;;;;2.00;1.90;;;15.30;99.90;;;;;;5033441;28;20233;-63
2022/08/10 04:47:11;;;;;;;1.87;1.77;;;15.40;99.90;;;;;;5032574;28;20594;-63
2022/08/10 04:49:44;;;;;;;2.40;1.90;;;15.40;99.90;;;;;;5033721;28;20743;-63
2022/08/10 04:52:25;;;;;;;1.87;1.70;;;15.40;99.90;;;;;;5032945;28;20633;-63
2022/08/10 04:54:53;;;;;;;2.27;2.00;;;15.50;99.90;;;;;;5033759;28;20276;-63
2022/08/10 04:57:21;;;;;;;2.23;2.03;;;15.60;99.90;;;;;;5034017;28;20224;-63
2022/08/10 04:59:49;;;;;;;2.40;2.20;;;15.60;99.90;;;;;;5036216;28;20227;-63
2022/08/10 05:02:17;;;;;;;2.57;2.30;;;15.70;99.90;;;;;;5020045;28;20234;-64
2022/08/10 05:04:59;;;;;;;3.27;2.50;;;15.80;99.90;;;;;;5020602;28;20223;-63
2022/08/10 05:07:28;;;;;;;3.30;2.50;;;15.90;99.90;;;;;;5032399;28;20319;-63
2022/08/10 05:09:57;;;;;;;5.47;2.50;;;16.00;99.90;;;;;;5033402;28;20224;-63
2022/08/10 05:12:34;;;;;;;3.50;2.30;;;16.20;99.90;;;;;;5032763;28;20240;-62
2022/08/10 05:15:07;;;;;;;2.53;2.33;;;16.30;99.90;;;;;;5026154;28;20221;-62
2022/08/10 05:17:36;;;;;;;4.07;2.47;;;16.40;99.90;;;;;;5035212;28;20700;-63
2022/08/10 05:20:05;;;;;;;2.63;2.20;;;16.50;99.90;;;;;;5040939;28;20232;-63
2022/08/10 05:22:39;;;;;;;5.23;2.70;;;16.60;99.90;;;;;;5033280;28;20282;-64
2022/08/10 05:25:10;;;;;;;2.60;2.40;;;16.70;99.90;;;;;;5033092;28;20256;-62
2022/08/10 05:27:38;;;;;;;2.53;2.33;;;16.90;99.90;;;;;;5037285;28;20247;-63
2022/08/10 05:30:08;;;;;;;2.53;2.30;;;17.10;99.90;;;;;;5038184;28;20253;-63
2022/08/10 05:32:36;;;;;;;3.17;2.47;;;17.20;99.90;;;;;;5039053;28;20730;-64
2022/08/10 05:35:25;;;;;;;2.50;2.30;;;17.40;99.90;;;;;;5041523;28;20217;-63
2022/08/10 05:37:56;;;;;;;2.97;2.40;;;17.60;99.90;;;;;;5036645;28;20232;-63
2022/08/10 05:40:42;;;;;;;2.50;2.30;;;17.80;99.90;;;;;;5035437;28;20220;-64
2022/08/10 05:43:17;;;;;;;4.10;2.63;;;18.00;99.90;;;;;;5029370;28;20220;-63
2022/08/10 05:45:45;;;;;;;2.67;1.93;;;18.10;99.90;;;;;;5039772;28;20221;-61
2022/08/10 05:48:34;;;;;;;2.53;2.33;;;18.20;99.90;;;;;;5035387;28;20220;-63
2022/08/10 05:51:23;;;;;;;2.70;2.30;;;18.50;99.90;;;;;;5039418;28;20688;-63
2022/08/10 05:53:52;;;;;;;2.57;2.37;;;18.70;99.90;;;;;;5043265;28;20672;-63
2022/08/10 05:56:34;;;;;;;2.30;2.00;;;19.00;99.90;;;;;;5038201;28;20229;-64
2022/08/10 05:59:24;;;;;;;3.17;2.53;;;19.20;99.90;;;;;;5040102;28;20225;-64
2022/08/10 06:02:17;;;;;;;2.80;2.23;;;19.30;99.90;;;;;;5043092;28;20238;-63
2022/08/10 06:05:08;;;;;;;2.73;2.07;;;19.60;99.90;;;;;;5037058;28;20225;-64
2022/08/10 06:07:44;;;;;;;3.97;2.40;;;19.80;99.90;;;;;;5030961;28;20308;-63
2022/08/10 06:10:15;;;;;;;3.47;2.50;;;19.90;99.90;;;;;;5032255;28;20317;-63
2022/08/10 06:16:00;;;;;;;3.80;2.00;;;20.40;99.90;;;;;;5039145;28;20257;-64
2022/08/10 06:18:29;;;;;;;2.43;1.90;;;20.50;99.90;;;;;;5034210;28;20313;-63
2022/08/10 06:20:57;;;;;;;3.30;2.08;;;20.70;99.90;;;;;;5037285;28;20901;-69
2022/08/10 06:23:28;;;;;;;4.97;2.40;;;20.80;99.90;;;;;;5038142;28;20310;-70
2022/08/10 06:25:58;;;;;;;3.73;2.00;;;21.00;99.90;;;;;;5039386;28;20318;-68
2022/08/10 06:28:43;;;;;;;2.80;2.40;;;21.10;99.90;;;;;;5036147;28;20281;-67
2022/08/10 06:31:32;;;;;;;2.63;1.97;;;21.30;99.90;;;;;;5030361;28;20234;-69
2022/08/10 06:34:20;;;;;;;2.83;2.20;;;21.50;99.90;;;;;;5034229;28;20281;-59
2022/08/10 06:36:49;;;;;;;4.93;2.10;;;21.80;99.90;;;;;;5032556;28;20227;-65
2022/08/10 06:39:17;;;;;;;3.20;1.97;;;21.70;99.90;;;;;;5030388;28;20225;-66
2022/08/10 06:42:12;;;;;;;3.60;1.70;;;21.80;99.90;;;;;;5032508;28;20305;-62
2022/08/10 06:44:54;;;;;;;1.87;1.50;;;22.10;99.90;;;;;;5027088;28;20220;-64
2022/08/10 06:47:28;;;;;;;2.90;1.80;;;22.30;99.90;;;;;;5027464;28;20322;-67
2022/08/10 06:50:02;;;;;;;3.37;1.73;;;22.50;99.90;;;;;;5030011;28;20231;-69
2022/08/10 06:52:36;;;;;;;4.20;1.87;;;22.70;99.90;;;;;;5028665;28;20277;-66
2022/08/10 06:55:08;;;;;;;2.77;1.40;;;23.10;99.90;;;;;;5012704;28;20298;-68
2022/08/10 06:57:41;;;;;;;2.87;1.40;;;23.70;99.90;;;;;;5025720;28;20228;-65
2022/08/10 07:00:13;;;;;;;3.40;1.50;;;24.00;99.90;;;;;;5027597;28;20228;-66
2022/08/10 07:02:52;;;;;;;4.43;1.50;;;23.80;99.90;;;;;;5034858;28;20604;-63
2022/08/10 07:05:23;;;;;;;3.65;1.60;;;24.00;99.90;;;;;;5034547;28;21286;-61
2022/08/10 07:07:54;;;;;;;3.60;1.80;;;24.30;99.90;;;;;;5036945;28;20217;-61
2022/08/10 07:10:25;;;;;;;3.30;1.50;;;24.30;99.90;;;;;;5035325;28;20320;-62
2022/08/10 07:13:16;;;;;;;4.00;1.77;;;24.30;99.90;;;;;;5036359;28;20310;-62
2022/08/10 07:16:08;;;;;;;3.90;1.63;;;24.40;99.90;;;;;;5043953;28;20244;-62
2022/08/10 07:18:37;;;;;;;3.60;1.60;;;24.50;99.90;;;;;;5033712;28;20223;-64
2022/08/10 07:21:07;;;;;;;3.10;1.60;;;24.60;99.90;;;;;;5034849;28;20241;-64
2022/08/10 07:23:35;;;;;;;1.97;1.40;;;24.70;99.90;;;;;;5035231;28;20218;-64
2022/08/10 07:26:24;;;;;;;3.53;1.77;;;24.80;99.90;;;;;;5015813;28;20597;-64
2022/08/10 07:28:55;;;;;;;2.33;1.50;;;24.70;99.90;;;;;;5030915;28;20219;-63
2022/08/10 07:31:24;;;;;;;2.20;1.77;;;24.80;99.90;;;;;;5037179;28;20310;-64
2022/08/10 07:34:15;;;;;;;3.87;1.90;;;24.90;99.90;;;;;;5035315;28;20233;-64
2022/08/10 07:37:00;;;;;;;1.83;1.40;;;25.10;99.90;;;;;;5034873;28;20241;-64
2022/08/10 07:39:31;;;;;;;5.30;1.70;;;25.10;99.90;;;;;;5034611;28;20221;-64
2022/08/10 07:42:21;;;;;;;3.33;1.47;;;25.40;99.90;;;;;;5029617;28;20692;-64
2022/08/10 07:44:51;;;;;;;4.33;1.60;;;25.70;99.90;;;;;;5034677;28;20229;-64
2022/08/10 07:47:23;;;;;;;2.60;1.50;;;25.90;99.90;;;;;;5033822;28;20229;-64
2022/08/10 07:50:14;;;;;;;2.83;1.70;;;26.00;99.90;;;;;;5032518;28;20218;-64
2022/08/10 07:52:43;;;;;;;4.70;1.50;;;26.20;99.90;;;;;;5037435;28;20269;-64
2022/08/10 07:55:15;;;;;;;3.07;1.60;;;26.30;99.90;;;;;;5036006;28;20233;-64
2022/08/10 07:57:46;;;;;;;3.30;1.60;;;26.60;99.90;;;;;;5033512;28;20241;-64
2022/08/10 08:00:17;;;;;;;3.00;1.70;;;26.60;99.90;;;;;;5018754;28;20233;-64
2022/08/10 08:02:49;;;;;;;2.10;1.50;;;26.80;99.90;;;;;;5033991;28;20705;-63
2022/08/10 08:05:21;;;;;;;3.53;1.37;;;26.90;99.90;;;;;;5033679;28;20227;-64
2022/08/10 08:08:10;;;;;;;3.58;1.65;;;26.90;99.90;;;;;;5028368;28;20930;-65
2022/08/10 08:10:38;;;;;;;2.57;1.40;;;26.90;99.90;;;;;;5033494;28;20227;-64
2022/08/10 08:13:07;;;;;;;2.60;1.40;;;26.90;99.90;;;;;;5034104;28;20236;-64
2022/08/10 08:15:38;;;;;;;2.50;1.57;;;27.10;99.90;;;;;;5035208;28;20228;-61
2022/08/10 08:18:28;;;;;;;4.83;1.40;;;27.00;99.90;;;;;;5032215;28;20230;-61
2022/08/10 08:20:57;;;;;;;1.60;1.20;;;27.40;99.90;;;;;;5032160;28;20568;-61
2022/08/10 08:23:30;;;;;;;4.10;1.50;;;27.30;99.90;;;;;;5033775;28;20235;-61
2022/08/10 08:26:19;;;;;;;3.43;1.40;;;27.40;99.90;;;;;;5033878;28;20559;-61
2022/08/10 08:28:49;;;;;;;4.23;1.40;;;27.60;99.90;;;;;;5033308;28;20322;-60
2022/08/10 08:31:19;;;;;;;3.87;1.40;;;27.40;99.90;;;;;;5032921;28;20260;-61
2022/08/10 08:33:49;;;;;;;7.97;1.67;;;27.50;99.90;;;;;;5034075;28;20299;-61
2022/08/10 08:36:19;;;;;;;3.27;1.30;;;27.20;99.90;;;;;;5029661;28;20256;-61
2022/08/10 08:38:48;;;;;;;1.40;1.10;;;27.30;99.90;;;;;;5022724;28;20235;-60
2022/08/10 08:41:49;;;;;;;2.87;1.10;;;27.40;99.90;;;;;;5015832;28;20252;-61
2022/08/10 08:44:27;;;;;;;3.17;1.50;;;27.70;99.90;;;;;;5029512;28;20347;-61
2022/08/10 08:47:31;;;;;;;1.70;1.20;;;28.10;99.90;;;;;;5020283;28;20228;-61
2022/08/10 08:50:32;;;;;;;1.97;1.30;;;28.40;99.90;;;;;;5024562;28;20236;-61
2022/08/10 08:53:17;;;;;;;3.33;1.43;;;28.70;99.90;;;;;;5020306;28;20228;-61
2022/08/10 08:55:56;;;;;;;1.63;1.10;;;28.80;99.90;;;;;;5033912;28;20243;-61
2022/08/10 08:58:48;;;;;;;2.97;1.10;;;29.20;99.90;;;;;;5026454;28;20231;-61
2022/08/10 09:01:36;;;;;;;2.90;1.33;;;29.10;99.90;;;;;;5026510;28;20240;-61
2022/08/10 09:04:23;;;;;;;1.77;1.20;;;29.30;99.90;;;;;;5033598;28;20236;-61
2022/08/10 09:07:25;;;;;;;1.93;1.33;;;29.50;99.90;;;;;;5033698;28;20235;-61
2022/08/10 09:10:24;;;;;;;3.20;1.30;;;29.80;99.90;;;;;;5026135;28;20223;-60
2022/08/10 09:13:04;;;;;;;2.97;1.13;;;29.90;99.90;;;;;;5032982;28;20729;-61
2022/08/10 09:15:39;;;;;;;3.63;1.30;;;30.10;99.90;;;;;;5033188;28;20313;-60
2022/08/10 09:18:19;;;;;;;2.72;1.20;;;30.00;99.90;;;;;;5031753;28;20441;-57
2022/08/10 09:20:53;;;;;;;4.83;1.10;;;30.10;99.90;;;;;;5031057;28;20230;-60
2022/08/10 09:23:28;;;;;;;2.83;1.30;;;30.10;99.90;;;;;;5032877;28;20224;-60
2022/08/10 09:26:20;;;;;;;2.03;1.20;;;30.30;99.90;;;;;;5033143;28;20224;-60
2022/08/10 09:28:51;;;;;;;1.30;0.97;;;30.50;99.90;;;;;;5032574;28;20319;-60
2022/08/10 09:31:44;;;;;;;2.17;1.03;;;30.50;99.90;;;;;;5032655;28;20228;-60
2022/08/10 09:34:45;;;;;;;4.07;1.30;;;30.90;99.90;;;;;;5030514;28;20233;-58
2022/08/10 09:37:41;;;;;;;2.70;1.20;;;31.00;99.90;;;;;;5040276;28;20449;-60
2022/08/10 09:40:38;;;;;;;3.77;1.00;;;31.10;99.90;;;;;;5032642;28;20213;-60
2022/08/10 09:43:36;;;;;;;2.30;1.03;;;31.20;99.90;;;;;;5022977;28;20230;-60
2022/08/10 09:46:13;;;;;;;1.13;0.90;;;31.20;99.90;;;;;;5032922;28;20336;-58
2022/08/10 09:48:50;;;;;;;1.10;0.90;;;31.50;99.90;;;;;;5036770;28;20219;-58
2022/08/10 09:51:29;;;;;;;2.60;0.93;;;31.80;99.90;;;;;;5026193;28;20235;-58
2022/08/10 09:54:50;;;;;;;1.70;1.00;;;31.90;99.90;;;;;;5030943;28;20225;-59
2022/08/10 09:57:28;;;;;;;2.03;1.00;;;31.60;98.80;;;;;;5038918;28;20734;-60
2022/08/10 10:00:19;;;;;;;1.50;1.20;;;32.20;99.90;;;;;;5034070;28;20231;-59
2022/08/10 10:03:03;;;;;;;2.93;1.00;;;32.00;98.60;;;;;;5040623;28;20307;-59
2022/08/10 10:05:45;;;;;;;1.13;0.90;;;32.20;98.90;;;;;;5038672;28;20600;-59
2022/08/10 10:08:27;;;;;;;1.03;0.93;;;31.60;98.50;;;;;;5034435;28;20227;-59
2022/08/10 10:11:09;;;;;;;2.33;0.97;;;31.20;98.70;;;;;;5036648;28;20245;-59
2022/08/10 10:13:45;;;;;;;1.13;0.80;;;30.80;99.90;;;;;;5041194;28;20232;-59
2022/08/10 10:16:43;;;;;;;1.50;0.97;;;31.10;99.80;;;;;;5038722;28;20225;-59
2022/08/10 10:19:24;;;;;;;1.37;0.90;;;31.50;99.20;;;;;;5040035;28;20238;-59
2022/08/10 10:22:04;;;;;;;1.00;0.70;;;31.50;98.00;;;;;;5032330;28;20232;-59
2022/08/10 10:24:41;;;;;;;1.37;0.90;;;31.20;97.20;;;;;;5032160;28;20236;-59
2022/08/10 10:27:26;;;;;;;1.07;0.77;;;31.40;97.60;;;;;;5014017;28;20301;-60
2022/08/10 10:30:02;;;;;;;1.00;0.70;;;31.80;97.30;;;;;;5033725;28;20224;-59
2022/08/10 10:32:44;;;;;;;1.10;0.73;;;32.30;97.90;;;;;;5033374;28;20337;-59
2022/08/10 10:35:24;;;;;;;2.13;0.80;;;32.50;97.90;;;;;;5036380;28;20305;-59
2022/08/10 10:37:54;;;;;;;1.50;0.80;;;32.50;97.80;;;;;;5038039;28;20235;-59
2022/08/10 10:40:35;;;;;;;1.43;0.83;;;32.70;96.20;;;;;;5035409;28;20234;-59
2022/08/10 10:43:11;;;;;;;0.70;0.70;;;32.50;94.90;;;;;;5035956;28;20237;-59
2022/08/10 10:45:51;;;;;;;1.27;0.83;;;32.40;95.00;;;;;;5036390;28;20238;-59
2022/08/10 10:48:25;;;;;;;1.03;0.60;;;32.40;95.20;;;;;;5035347;28;20230;-59
2022/08/10 10:51:07;;;;;;;0.60;0.60;;;32.70;96.20;;;;;;5035888;28;20238;-60
2022/08/10 10:53:47;;;;;;;1.37;0.80;;;32.70;94.90;;;;;;5036049;28;20289;-59
2022/08/10 10:56:25;;;;;;;1.57;0.70;;;32.30;94.70;;;;;;5036315;28;20231;-59
2022/08/10 10:59:06;;;;;;;1.93;0.90;;;32.60;95.90;;;;;;5034498;28;20227;-59
2022/08/10 11:02:05;;;;;;;1.30;0.70;;;32.70;94.70;;;;;;5035183;28;20226;-60
2022/08/10 11:04:42;;;;;;;1.60;0.60;;;33.20;93.60;;;;;;5035409;28;20765;-59
2022/08/10 11:07:16;;;;;;;0.83;0.70;;;33.10;93.90;;;;;;5036870;28;20247;-59
2022/08/10 11:09:55;;;;;;;1.27;0.60;;;33.10;94.50;;;;;;5034839;28;20223;-60
2022/08/10 11:12:49;;;;;;;2.70;0.70;;;32.90;92.80;;;;;;5035201;28;20248;-59
2022/08/10 11:15:27;;;;;;;1.87;0.70;;;32.50;93.40;;;;;;5035181;28;20230;-59
2022/08/10 11:18:01;;;;;;;0.90;0.60;;;32.50;93.10;;;;;;5039591;28;20229;-59
2022/08/10 11:20:37;;;;;;;0.93;0.73;;;32.90;93.80;;;;;;5035321;28;20315;-59
2022/08/10 11:23:18;;;;;;;0.83;0.60;;;33.30;93.20;;;;;;5038194;28;20589;-59
2022/08/10 11:25:55;;;;;;;1.83;0.63;;;33.60;92.20;;;;;;5043362;28;20232;-59
2022/08/10 11:28:33;;;;;;;1.40;1.03;;;33.40;91.80;;;;;;5037344;28;21000;-59
2022/08/10 11:31:13;;;;;;;0.80;0.60;;;33.20;91.80;;;;;;5034275;28;20243;-59
2022/08/10 11:33:47;;;;;;;1.83;0.77;;;33.00;91.60;;;;;;5035161;28;20321;-59
2022/08/10 11:36:42;;;;;;;2.47;0.70;;;32.50;91.60;;;;;;5034982;28;20231;-60
2022/08/10 11:39:17;;;;;;;2.37;0.77;;;32.10;92.10;;;;;;5033219;28;20314;-59
2022/08/10 11:41:53;;;;;;;1.87;0.83;;;32.30;91.40;;;;;;5031691;28;20303;-59
2022/08/10 11:44:49;;;;;;;0.90;0.50;;;32.70;91.10;;;;;;5034007;28;20284;-59
2022/08/10 11:47:22;;;;;;;0.90;0.60;;;32.90;91.40;;;;;;5033961;28;20257;-59
2022/08/10 11:49:55;;;;;;;2.20;0.73;;;33.00;91.40;;;;;;5037141;28;20228;-59
2022/08/10 11:52:34;;;;;;;0.90;0.60;;;33.20;91.10;;;;;;5034000;28;20630;-60
2022/08/10 11:55:09;;;;;;;1.90;0.70;;;32.40;91.40;;;;;;5015091;28;20241;-57
2022/08/10 11:57:41;;;;;;;0.80;0.60;;;32.70;91.30;;;;;;5029311;28;20270;-57
2022/08/10 12:00:31;;;;;;;0.70;0.70;;;32.80;91.30;;;;;;5030453;28;20236;-58
2022/08/10 12:03:05;;;;;;;1.03;0.70;;;32.60;91.00;;;;;;5034856;28;20220;-57
2022/08/10 12:05:37;;;;;;;2.30;0.73;;;32.50;90.80;;;;;;5033559;28;20225;-58
2022/08/10 12:08:25;;;;;;;1.83;0.60;;;32.10;91.70;;;;;;5026090;28;20322;-57
2022/08/10 12:11:16;;;;;;;1.10;0.60;;;31.90;92.70;;;;;;5026809;28;20737;-57
2022/08/10 12:14:00;;;;;;;0.70;0.70;;;31.20;92.00;;;;;;5039766;28;20314;-57
2022/08/10 12:16:51;;;;;;;0.70;0.70;;;31.00;92.60;;;;;;5036619;28;20404;-57
2022/08/10 12:19:27;;;;;;;1.13;0.70;;;30.90;93.10;;;;;;5038145;28;20249;-57
2022/08/10 12:22:00;;;;;;;1.70;0.60;;;30.90;93.80;;;;;;5034199;28;20591;-57
2022/08/10 12:24:38;;;;;;;1.07;0.70;;;30.70;94.10;;;;;;5034436;28;20232;-58
2022/08/10 12:27:11;;;;;;;0.93;0.60;;;30.90;93.60;;;;;;5033125;28;20228;-59
2022/08/10 12:29:45;;;;;;;2.67;0.60;;;30.90;93.70;;;;;;5033798;28;20220;-57
2022/08/10 12:32:22;;;;;;;0.80;0.80;;;30.70;94.20;;;;;;5032746;28;20258;-57
2022/08/10 12:35:01;;;;;;;1.50;0.80;;;30.20;93.30;;;;;;5034066;28;20262;-57
2022/08/10 12:37:33;;;;;;;2.50;0.60;;;30.30;93.60;;;;;;5032670;28;20298;-57
2022/08/10 12:40:08;;;;;;;2.40;0.70;;;30.30;93.80;;;;;;5033967;28;20276;-58
2022/08/10 12:43:03;;;;;;;1.90;0.60;;;30.20;92.70;;;;;;5033038;28;20702;-57
2022/08/10 12:46:09;;;;;;;0.90;0.63;;;30.40;92.60;;;;;;5031234;28;20233;-57
2022/08/10 12:48:48;;;;;;;1.17;0.63;;;30.20;93.70;;;;;;5020414;28;20232;-58
2022/08/10 12:51:21;;;;;;;0.93;0.63;;;30.10;92.30;;;;;;5021922;28;20232;-59
2022/08/10 12:53:55;;;;;;;1.23;0.53;;;30.20;92.50;;;;;;5021652;28;20233;-58
2022/08/10 12:56:26;;;;;;;0.70;0.60;;;30.10;91.20;;;;;;5017499;28;20228;-59
2022/08/10 12:58:57;;;;;;;1.97;0.80;;;29.80;91.90;;;;;;5018227;28;20232;-57
2022/08/10 13:01:31;;;;;;;0.87;0.60;;;29.60;92.20;;;;;;5021758;28;20232;-57
2022/08/10 13:04:28;;;;;;;2.03;0.70;;;29.70;92.80;;;;;;5021416;28;20234;-57
2022/08/10 13:07:00;;;;;;;1.10;0.60;;;29.70;92.10;;;;;;5018908;28;20231;-59
2022/08/10 13:09:29;;;;;;;1.67;0.80;;;29.30;92.40;;;;;;5020735;28;20242;-57
2022/08/10 13:12:02;;;;;;;3.20;0.63;;;29.20;92.20;;;;;;5020808;28;20817;-58
2022/08/10 13:14:54;;;;;;;0.90;0.63;;;29.10;92.40;;;;;;5020725;28;20216;-58
2022/08/10 13:17:25;;;;;;;0.60;0.60;;;28.80;91.40;;;;;;5016985;28;20243;-58
2022/08/10 13:20:15;;;;;;;2.70;0.80;;;28.50;91.20;;;;;;5021241;28;20232;-59
2022/08/10 13:22:53;;;;;;;0.70;0.70;;;28.30;92.10;;;;;;5021296;28;20232;-60
2022/08/10 13:25:29;;;;;;;0.73;0.60;;;28.60;93.20;;;;;;5019106;28;20251;-58
2022/08/10 13:28:04;;;;;;;0.80;0.80;;;28.80;93.40;;;;;;5020180;28;20358;-60
2022/08/10 13:30:55;;;;;;;1.77;0.70;;;28.90;93.10;;;;;;5021150;28;20255;-59
2022/08/10 13:33:27;;;;;;;1.80;0.70;;;29.00;91.00;;;;;;5021051;28;20240;-59
2022/08/10 13:36:20;;;;;;;1.07;0.80;;;28.50;91.90;;;;;;5019053;28;20322;-58
2022/08/10 13:38:54;;;;;;;1.20;0.67;;;28.70;91.70;;;;;;5018844;28;20248;-59
2022/08/10 13:41:27;;;;;;;0.50;0.50;;;28.70;92.40;;;;;;5020872;28;20243;-58
2022/08/10 13:43:58;;;;;;;3.03;0.60;;;28.70;92.80;;;;;;5020340;28;20749;-58
2022/08/10 13:46:27;;;;;;;0.83;0.70;;;28.70;92.40;;;;;;5017347;28;20683;-58